sensor_id;sensor_type;location;lat;lon;timestamp;temperature;humidity
8436;DHT22;4255;48.730;9.156;2022-11-15T00:01:47;10.60;99.90
8436;DHT22;4255;48.730;9.156;2022-11-15T00:04:13;10.60;99.90
8436;DHT22;4255;48.730;9.156;2022-11-15T00:06:38;10.80;99.90
8436;DHT22;4255;48.730;9.156;2022-11-15T00:09:04;10.80;99.90
8436;DHT22;4255;48.730;9.156;2022-11-15T00:11:29;11.00;99.90
8436;DHT22;4255;48.730;9.156;2022-11-15T00:13:56;11.00;99.90
8436;DHT22;4255;48.730;9.156;2022-11-15T00:16:22;11.10;99.90
8436;DHT22;4255;48.730;9.156;2022-11-15T00:18:48;11.10;99.90
8436;DHT22;4255;48.730;9.156;2022-11-15T00:21:14;11.00;99.90
8436;DHT22;4255;48.730;9.156;2022-11-15T00:23:40;11.10;99.90
8436;DHT22;4255;48.730;9.156;2022-11-15T00:26:06;11.00;99.90
8436;DHT22;4255;48.730;9.156;2022-11-15T00:28:32;11.10;99.90
8436;DHT22;4255;48.730;9.156;2022-11-15T00:31:06;11.00;99.90
8436;DHT22;4255;48.730;9.156;2022-11-15T00:33:32;11.00;99.90
8436;DHT22;4255;48.730;9.156;2022-11-15T00:36:06;10.90;99.90
8436;DHT22;4255;48.730;9.156;2022-11-15T00:38:33;10.90;99.90
8436;DHT22;4255;48.730;9.156;2022-11-15T00:41:00;11.00;99.90
8436;DHT22;4255;48.730;9.156;2022-11-15T00:43:26;10.80;99.90
8436;DHT22;4255;48.730;9.156;2022-11-15T00:45:52;10.80;99.90
8436;DHT22;4255;48.730;9.156;2022-11-15T00:48:18;10.80;99.90
8436;DHT22;4255;48.730;9.156;2022-11-15T00:50:43;10.80;99.90
8436;DHT22;4255;48.730;9.156;2022-11-15T00:53:09;10.90;99.90
8436;DHT22;4255;48.730;9.156;2022-11-15T00:55:35;10.90;99.90
8436;DHT22;4255;48.730;9.156;2022-11-15T00:58:00;10.90;99.90
8436;DHT22;4255;48.730;9.156;2022-11-15T01:00:26;10.90;99.90
8436;DHT22;4255;48.730;9.156;2022-11-15T01:02:52;10.80;99.90
8436;DHT22;4255;48.730;9.156;2022-11-15T01:05:17;10.90;99.90
8436;DHT22;4255;48.730;9.156;2022-11-15T01:07:43;10.90;99.90
8436;DHT22;4255;48.730;9.156;2022-11-15T01:10:09;10.90;99.90
8436;DHT22;4255;48.730;9.156;2022-11-15T01:12:34;10.70;99.90
8436;DHT22;4255;48.730;9.156;2022-11-15T01:15:00;10.70;99.90
8436;DHT22;4255;48.730;9.156;2022-11-15T01:17:26;10.70;99.90
8436;DHT22;4255;48.730;9.156;2022-11-15T01:19:52;10.70;99.90
8436;DHT22;4255;48.730;9.156;2022-11-15T01:22:18;10.70;99.90
8436;DHT22;4255;48.730;9.156;2022-11-15T01:24:43;10.50;99.90
8436;DHT22;4255;48.730;9.156;2022-11-15T01:27:09;10.30;99.90
8436;DHT22;4255;48.730;9.156;2022-11-15T01:29:35;10.20;99.90
8436;DHT22;4255;48.730;9.156;2022-11-15T01:32:01;10.20;99.90
8436;DHT22;4255;48.730;9.156;2022-11-15T01:34:26;10.00;99.90
8436;DHT22;4255;48.730;9.156;2022-11-15T01:36:52;10.10;99.90
8436;DHT22;4255;48.730;9.156;2022-11-15T01:39:18;10.10;99.90
8436;DHT22;4255;48.730;9.156;2022-11-15T01:41:43;10.00;99.90
8436;DHT22;4255;48.730;9.156;2022-11-15T01:46:53;9.90;99.90
8436;DHT22;4255;48.730;9.156;2022-11-15T01:49:21;9.90;99.90
8436;DHT22;4255;48.730;9.156;2022-11-15T01:51:47;9.90;99.90
8436;DHT22;4255;48.730;9.156;2022-11-15T01:54:15;9.90;99.90
8436;DHT22;4255;48.730;9.156;2022-11-15T01:56:52;9.80;99.90
8436;DHT22;4255;48.730;9.156;2022-11-15T01:59:19;9.80;99.90
8436;DHT22;4255;48.730;9.156;2022-11-15T02:01:45;9.80;99.90
8436;DHT22;4255;48.730;9.156;2022-11-15T02:04:14;9.70;99.90
8436;DHT22;4255;48.730;9.156;2022-11-15T02:06:41;9.80;99.90
8436;DHT22;4255;48.730;9.156;2022-11-15T02:09:08;9.80;99.90
8436;DHT22;4255;48.730;9.156;2022-11-15T02:11:34;9.70;99.90
8436;DHT22;4255;48.730;9.156;2022-11-15T02:14:00;9.80;99.90
8436;DHT22;4255;48.730;9.156;2022-11-15T02:33:02;9.90;99.90
8436;DHT22;4255;48.730;9.156;2022-11-15T02:41:07;9.90;99.90
8436;DHT22;4255;48.730;9.156;2022-11-15T02:49:09;9.80;99.90
8436;DHT22;4255;48.730;9.156;2022-11-15T02:51:35;9.70;99.90
8436;DHT22;4255;48.730;9.156;2022-11-15T02:54:00;9.80;99.90
8436;DHT22;4255;48.730;9.156;2022-11-15T02:56:26;9.80;99.90
8436;DHT22;4255;48.730;9.156;2022-11-15T03:10:40;9.70;99.90
8436;DHT22;4255;48.730;9.156;2022-11-15T03:12:59;9.50;99.90
8436;DHT22;4255;48.730;9.156;2022-11-15T03:15:31;9.40;99.90
8436;DHT22;4255;48.730;9.156;2022-11-15T03:18:00;9.40;99.90
8436;DHT22;4255;48.730;9.156;2022-11-15T03:20:28;9.50;99.90
8436;DHT22;4255;48.730;9.156;2022-11-15T03:22:56;9.50;99.90
8436;DHT22;4255;48.730;9.156;2022-11-15T03:25:26;9.50;99.90
8436;DHT22;4255;48.730;9.156;2022-11-15T03:27:55;9.60;99.90
8436;DHT22;4255;48.730;9.156;2022-11-15T03:30:22;9.60;99.90
8436;DHT22;4255;48.730;9.156;2022-11-15T03:32:56;9.70;99.90
8436;DHT22;4255;48.730;9.156;2022-11-15T03:35:28;9.70;99.90
8436;DHT22;4255;48.730;9.156;2022-11-15T03:38:19;9.70;99.90
8436;DHT22;4255;48.730;9.156;2022-11-15T03:40:53;9.60;99.90
8436;DHT22;4255;48.730;9.156;2022-11-15T03:43:43;9.60;99.90
8436;DHT22;4255;48.730;9.156;2022-11-15T03:46:14;9.60;99.90
8436;DHT22;4255;48.730;9.156;2022-11-15T03:48:48;9.60;99.90
8436;DHT22;4255;48.730;9.156;2022-11-15T03:51:15;9.60;99.90
8436;DHT22;4255;48.730;9.156;2022-11-15T03:53:41;9.70;99.90
8436;DHT22;4255;48.730;9.156;2022-11-15T03:56:07;9.70;99.90
8436;DHT22;4255;48.730;9.156;2022-11-15T03:58:32;9.70;99.90
8436;DHT22;4255;48.730;9.156;2022-11-15T04:00:58;9.80;99.90
8436;DHT22;4255;48.730;9.156;2022-11-15T04:03:25;9.80;99.90
8436;DHT22;4255;48.730;9.156;2022-11-15T04:05:50;9.80;99.90
8436;DHT22;4255;48.730;9.156;2022-11-15T04:08:16;9.70;99.90
8436;DHT22;4255;48.730;9.156;2022-11-15T04:10:41;9.60;99.90
8436;DHT22;4255;48.730;9.156;2022-11-15T04:13:07;9.60;99.90
8436;DHT22;4255;48.730;9.156;2022-11-15T04:15:33;9.70;99.90
8436;DHT22;4255;48.730;9.156;2022-11-15T04:17:59;9.70;99.90
8436;DHT22;4255;48.730;9.156;2022-11-15T04:20:27;9.80;99.90
8436;DHT22;4255;48.730;9.156;2022-11-15T04:23:16;9.80;99.90
8436;DHT22;4255;48.730;9.156;2022-11-15T04:26:04;9.70;99.90
8436;DHT22;4255;48.730;9.156;2022-11-15T04:28:30;9.70;99.90
8436;DHT22;4255;48.730;9.156;2022-11-15T04:30:56;9.70;99.90
8436;DHT22;4255;48.730;9.156;2022-11-15T04:33:22;9.60;99.90
8436;DHT22;4255;48.730;9.156;2022-11-15T04:35:48;9.60;99.90
8436;DHT22;4255;48.730;9.156;2022-11-15T04:38:33;9.60;99.90
8436;DHT22;4255;48.730;9.156;2022-11-15T04:40:59;9.60;99.90
8436;DHT22;4255;48.730;9.156;2022-11-15T04:43:24;9.70;99.90
8436;DHT22;4255;48.730;9.156;2022-11-15T04:45:50;9.50;99.90
8436;DHT22;4255;48.730;9.156;2022-11-15T04:48:15;9.40;99.90
8436;DHT22;4255;48.730;9.156;2022-11-15T04:50:41;9.40;99.90
8436;DHT22;4255;48.730;9.156;2022-11-15T04:53:07;9.30;99.90
8436;DHT22;4255;48.730;9.156;2022-11-15T04:55:32;9.40;99.90
8436;DHT22;4255;48.730;9.156;2022-11-15T04:57:59;9.30;99.90
8436;DHT22;4255;48.730;9.156;2022-11-15T05:00:25;9.30;99.90
8436;DHT22;4255;48.730;9.156;2022-11-15T05:02:51;9.30;99.90
8436;DHT22;4255;48.730;9.156;2022-11-15T05:05:36;9.40;99.90
8436;DHT22;4255;48.730;9.156;2022-11-15T05:08:02;9.40;99.90
8436;DHT22;4255;48.730;9.156;2022-11-15T05:10:27;9.50;99.90
8436;DHT22;4255;48.730;9.156;2022-11-15T05:12:53;9.50;99.90
8436;DHT22;4255;48.730;9.156;2022-11-15T05:15:18;9.50;99.90
8436;DHT22;4255;48.730;9.156;2022-11-15T05:17:44;9.50;99.90
8436;DHT22;4255;48.730;9.156;2022-11-15T05:20:10;9.60;99.90
8436;DHT22;4255;48.730;9.156;2022-11-15T05:22:36;9.60;99.90
8436;DHT22;4255;48.730;9.156;2022-11-15T05:25:02;9.60;99.90
8436;DHT22;4255;48.730;9.156;2022-11-15T05:27:28;9.60;99.90
8436;DHT22;4255;48.730;9.156;2022-11-15T05:29:53;9.60;99.90
8436;DHT22;4255;48.730;9.156;2022-11-15T05:32:19;9.60;99.90
8436;DHT22;4255;48.730;9.156;2022-11-15T05:34:45;9.60;99.90
8436;DHT22;4255;48.730;9.156;2022-11-15T05:37:11;9.60;99.90
8436;DHT22;4255;48.730;9.156;2022-11-15T05:39:36;9.70;99.90
8436;DHT22;4255;48.730;9.156;2022-11-15T05:42:09;9.70;99.90
8436;DHT22;4255;48.730;9.156;2022-11-15T05:44:37;9.70;99.90
8436;DHT22;4255;48.730;9.156;2022-11-15T05:47:06;9.70;99.90
8436;DHT22;4255;48.730;9.156;2022-11-15T05:49:35;9.70;99.90
8436;DHT22;4255;48.730;9.156;2022-11-15T05:52:05;9.70;99.90
8436;DHT22;4255;48.730;9.156;2022-11-15T05:54:31;9.80;99.90
8436;DHT22;4255;48.730;9.156;2022-11-15T05:56:57;9.70;99.90
8436;DHT22;4255;48.730;9.156;2022-11-15T05:59:23;9.70;99.90
8436;DHT22;4255;48.730;9.156;2022-11-15T06:01:49;9.80;99.90
8436;DHT22;4255;48.730;9.156;2022-11-15T06:04:15;9.80;99.90
8436;DHT22;4255;48.730;9.156;2022-11-15T06:06:40;9.80;99.90
8436;DHT22;4255;48.730;9.156;2022-11-15T06:09:06;9.80;99.90
8436;DHT22;4255;48.730;9.156;2022-11-15T06:11:31;9.80;99.90
8436;DHT22;4255;48.730;9.156;2022-11-15T06:13:57;9.70;99.90
8436;DHT22;4255;48.730;9.156;2022-11-15T06:16:23;9.60;99.90
8436;DHT22;4255;48.730;9.156;2022-11-15T06:18:48;9.60;99.90
8436;DHT22;4255;48.730;9.156;2022-11-15T06:21:14;9.50;99.90
8436;DHT22;4255;48.730;9.156;2022-11-15T06:23:39;9.70;99.90
8436;DHT22;4255;48.730;9.156;2022-11-15T06:26:05;9.50;99.90
8436;DHT22;4255;48.730;9.156;2022-11-15T06:28:32;9.40;99.90
8436;DHT22;4255;48.730;9.156;2022-11-15T06:31:05;9.40;99.90
8436;DHT22;4255;48.730;9.156;2022-11-15T06:33:31;9.60;99.90
8436;DHT22;4255;48.730;9.156;2022-11-15T06:36:08;9.50;99.90
8436;DHT22;4255;48.730;9.156;2022-11-15T06:38:35;9.50;99.90
8436;DHT22;4255;48.730;9.156;2022-11-15T06:41:02;9.50;99.90
8436;DHT22;4255;48.730;9.156;2022-11-15T06:43:27;9.50;99.90
8436;DHT22;4255;48.730;9.156;2022-11-15T06:45:53;9.50;99.90
8436;DHT22;4255;48.730;9.156;2022-11-15T06:48:19;9.50;99.90
8436;DHT22;4255;48.730;9.156;2022-11-15T06:50:52;9.50;99.90
8436;DHT22;4255;48.730;9.156;2022-11-15T06:53:18;9.40;99.90
8436;DHT22;4255;48.730;9.156;2022-11-15T06:55:43;9.40;99.90
8436;DHT22;4255;48.730;9.156;2022-11-15T06:58:09;9.40;99.90
8436;DHT22;4255;48.730;9.156;2022-11-15T07:00:35;9.40;99.90
8436;DHT22;4255;48.730;9.156;2022-11-15T07:03:01;9.60;99.90
8436;DHT22;4255;48.730;9.156;2022-11-15T07:05:26;10.10;99.90
8436;DHT22;4255;48.730;9.156;2022-11-15T07:07:56;10.60;99.90
8436;DHT22;4255;48.730;9.156;2022-11-15T07:10:23;11.00;99.90
8436;DHT22;4255;48.730;9.156;2022-11-15T07:12:53;11.00;99.90
8436;DHT22;4255;48.730;9.156;2022-11-15T07:15:20;11.10;99.90
8436;DHT22;4255;48.730;9.156;2022-11-15T07:17:46;11.20;99.90
8436;DHT22;4255;48.730;9.156;2022-11-15T07:20:12;11.00;99.90
8436;DHT22;4255;48.730;9.156;2022-11-15T07:22:39;11.00;99.90
8436;DHT22;4255;48.730;9.156;2022-11-15T07:25:05;11.00;99.90
8436;DHT22;4255;48.730;9.156;2022-11-15T07:27:32;11.00;99.90
8436;DHT22;4255;48.730;9.156;2022-11-15T07:29:58;10.90;99.90
8436;DHT22;4255;48.730;9.156;2022-11-15T07:32:23;11.00;99.90
8436;DHT22;4255;48.730;9.156;2022-11-15T07:34:49;11.00;99.90
8436;DHT22;4255;48.730;9.156;2022-11-15T07:37:14;11.00;99.90
8436;DHT22;4255;48.730;9.156;2022-11-15T07:39:40;11.00;99.90
8436;DHT22;4255;48.730;9.156;2022-11-15T07:42:06;11.00;99.90
8436;DHT22;4255;48.730;9.156;2022-11-15T07:44:50;11.00;99.90
8436;DHT22;4255;48.730;9.156;2022-11-15T07:47:15;11.00;99.90
8436;DHT22;4255;48.730;9.156;2022-11-15T07:49:41;11.30;99.90
8436;DHT22;4255;48.730;9.156;2022-11-15T07:52:07;11.50;99.90
8436;DHT22;4255;48.730;9.156;2022-11-15T07:54:32;11.50;99.90
8436;DHT22;4255;48.730;9.156;2022-11-15T07:56:58;11.50;99.90
8436;DHT22;4255;48.730;9.156;2022-11-15T07:59:23;11.40;99.90
8436;DHT22;4255;48.730;9.156;2022-11-15T08:01:49;11.50;99.90
8436;DHT22;4255;48.730;9.156;2022-11-15T08:04:15;11.70;99.90
8436;DHT22;4255;48.730;9.156;2022-11-15T08:06:40;12.00;99.90
8436;DHT22;4255;48.730;9.156;2022-11-15T08:09:06;12.20;99.90
8436;DHT22;4255;48.730;9.156;2022-11-15T08:11:31;12.40;99.90
8436;DHT22;4255;48.730;9.156;2022-11-15T08:13:58;12.60;99.90
8436;DHT22;4255;48.730;9.156;2022-11-15T08:16:23;12.60;99.90
8436;DHT22;4255;48.730;9.156;2022-11-15T08:18:49;12.70;99.90
8436;DHT22;4255;48.730;9.156;2022-11-15T08:21:18;12.80;99.90
8436;DHT22;4255;48.730;9.156;2022-11-15T08:23:44;12.80;99.90
8436;DHT22;4255;48.730;9.156;2022-11-15T08:26:10;12.80;99.90
8436;DHT22;4255;48.730;9.156;2022-11-15T08:28:35;12.90;99.90
8436;DHT22;4255;48.730;9.156;2022-11-15T08:31:02;13.10;99.90
8436;DHT22;4255;48.730;9.156;2022-11-15T08:33:28;13.10;99.90
8436;DHT22;4255;48.730;9.156;2022-11-15T08:35:56;13.30;99.90
8436;DHT22;4255;48.730;9.156;2022-11-15T08:38:22;13.30;99.90
8436;DHT22;4255;48.730;9.156;2022-11-15T08:40:49;13.40;99.90
8436;DHT22;4255;48.730;9.156;2022-11-15T08:43:15;13.30;99.90
8436;DHT22;4255;48.730;9.156;2022-11-15T08:45:41;13.50;99.90
8436;DHT22;4255;48.730;9.156;2022-11-15T08:48:06;13.60;99.90
8436;DHT22;4255;48.730;9.156;2022-11-15T08:50:32;13.50;99.90
8436;DHT22;4255;48.730;9.156;2022-11-15T08:53:03;13.80;99.90
8436;DHT22;4255;48.730;9.156;2022-11-15T08:55:29;14.00;99.90
8436;DHT22;4255;48.730;9.156;2022-11-15T08:57:57;14.10;99.90
8436;DHT22;4255;48.730;9.156;2022-11-15T09:00:23;14.10;99.90
8436;DHT22;4255;48.730;9.156;2022-11-15T09:02:48;14.40;99.90
8436;DHT22;4255;48.730;9.156;2022-11-15T09:05:14;14.40;99.90
8436;DHT22;4255;48.730;9.156;2022-11-15T09:07:41;14.60;99.90
8436;DHT22;4255;48.730;9.156;2022-11-15T09:10:06;14.60;99.90
8436;DHT22;4255;48.730;9.156;2022-11-15T09:12:32;14.60;99.90
8436;DHT22;4255;48.730;9.156;2022-11-15T09:14:58;14.60;99.90
8436;DHT22;4255;48.730;9.156;2022-11-15T09:17:23;14.80;99.90
8436;DHT22;4255;48.730;9.156;2022-11-15T09:19:49;14.80;99.90
8436;DHT22;4255;48.730;9.156;2022-11-15T09:22:15;15.00;99.90
8436;DHT22;4255;48.730;9.156;2022-11-15T09:24:40;15.10;99.90
8436;DHT22;4255;48.730;9.156;2022-11-15T09:27:06;15.10;99.90
8436;DHT22;4255;48.730;9.156;2022-11-15T09:29:32;15.20;99.90
8436;DHT22;4255;48.730;9.156;2022-11-15T09:31:57;15.20;99.90
8436;DHT22;4255;48.730;9.156;2022-11-15T09:34:23;15.20;99.90
8436;DHT22;4255;48.730;9.156;2022-11-15T09:36:48;15.30;99.90
8436;DHT22;4255;48.730;9.156;2022-11-15T09:39:14;15.60;99.90
8436;DHT22;4255;48.730;9.156;2022-11-15T09:42:04;15.80;99.90
8436;DHT22;4255;48.730;9.156;2022-11-15T09:44:49;16.00;99.90
8436;DHT22;4255;48.730;9.156;2022-11-15T09:47:47;16.10;99.90
8436;DHT22;4255;48.730;9.156;2022-11-15T09:50:21;15.90;99.90
8436;DHT22;4255;48.730;9.156;2022-11-15T09:52:52;16.00;99.90
8436;DHT22;4255;48.730;9.156;2022-11-15T09:55:18;16.00;99.90
8436;DHT22;4255;48.730;9.156;2022-11-15T10:00:17;16.00;99.90
8436;DHT22;4255;48.730;9.156;2022-11-15T10:05:25;16.00;99.90
8436;DHT22;4255;48.730;9.156;2022-11-15T10:10:44;16.10;99.90
8436;DHT22;4255;48.730;9.156;2022-11-15T10:13:32;16.10;99.90
8436;DHT22;4255;48.730;9.156;2022-11-15T10:25:37;16.60;99.90
8436;DHT22;4255;48.730;9.156;2022-11-15T10:27:40;16.70;99.90
8436;DHT22;4255;48.730;9.156;2022-11-15T10:30:14;16.70;99.90
8436;DHT22;4255;48.730;9.156;2022-11-15T10:32:42;16.50;99.90
8436;DHT22;4255;48.730;9.156;2022-11-15T10:35:20;16.50;99.90
8436;DHT22;4255;48.730;9.156;2022-11-15T10:37:46;16.50;99.90
8436;DHT22;4255;48.730;9.156;2022-11-15T10:40:22;16.60;99.90
8436;DHT22;4255;48.730;9.156;2022-11-15T10:43:03;16.70;99.90
8436;DHT22;4255;48.730;9.156;2022-11-15T10:45:31;16.60;99.90
8436;DHT22;4255;48.730;9.156;2022-11-15T10:50:39;16.40;99.90
8436;DHT22;4255;48.730;9.156;2022-11-15T10:55:41;16.10;99.90
8436;DHT22;4255;48.730;9.156;2022-11-15T10:58:32;16.20;99.90
8436;DHT22;4255;48.730;9.156;2022-11-15T11:01:10;16.40;99.90
8436;DHT22;4255;48.730;9.156;2022-11-15T11:03:38;16.40;99.90
8436;DHT22;4255;48.730;9.156;2022-11-15T11:08:33;16.20;99.90
8436;DHT22;4255;48.730;9.156;2022-11-15T11:11:01;16.10;99.90
8436;DHT22;4255;48.730;9.156;2022-11-15T11:13:38;16.00;99.90
8436;DHT22;4255;48.730;9.156;2022-11-15T11:19:04;15.90;99.90
8436;DHT22;4255;48.730;9.156;2022-11-15T11:30:09;16.20;99.90
8436;DHT22;4255;48.730;9.156;2022-11-15T11:36:18;16.50;99.90
8436;DHT22;4255;48.730;9.156;2022-11-15T11:38:27;16.60;99.90
8436;DHT22;4255;48.730;9.156;2022-11-15T11:41:04;16.70;99.90
8436;DHT22;4255;48.730;9.156;2022-11-15T11:44:02;16.80;99.90
8436;DHT22;4255;48.730;9.156;2022-11-15T11:49:17;16.80;99.90
8436;DHT22;4255;48.730;9.156;2022-11-15T11:51:53;16.70;99.90
8436;DHT22;4255;48.730;9.156;2022-11-15T11:54:38;16.90;99.90
8436;DHT22;4255;48.730;9.156;2022-11-15T11:57:21;16.70;99.90
8436;DHT22;4255;48.730;9.156;2022-11-15T12:00:01;16.60;99.90
8436;DHT22;4255;48.730;9.156;2022-11-15T12:02:29;16.80;99.90
8436;DHT22;4255;48.730;9.156;2022-11-15T12:07:58;17.20;99.90
8436;DHT22;4255;48.730;9.156;2022-11-15T12:10:29;17.30;99.90
8436;DHT22;4255;48.730;9.156;2022-11-15T12:13:00;17.20;99.90
8436;DHT22;4255;48.730;9.156;2022-11-15T12:15:31;17.10;99.90
8436;DHT22;4255;48.730;9.156;2022-11-15T12:18:00;17.10;99.90
8436;DHT22;4255;48.730;9.156;2022-11-15T12:20:39;17.10;99.90
8436;DHT22;4255;48.730;9.156;2022-11-15T12:23:15;17.30;99.90
8436;DHT22;4255;48.730;9.156;2022-11-15T12:25:53;17.20;99.90
8436;DHT22;4255;48.730;9.156;2022-11-15T12:28:38;17.00;99.90
8436;DHT22;4255;48.730;9.156;2022-11-15T12:31:58;17.00;99.90
8436;DHT22;4255;48.730;9.156;2022-11-15T12:33:58;17.00;99.90
8436;DHT22;4255;48.730;9.156;2022-11-15T12:36:31;17.00;99.90
8436;DHT22;4255;48.730;9.156;2022-11-15T12:39:11;17.10;99.90
8436;DHT22;4255;48.730;9.156;2022-11-15T12:41:42;17.10;99.90
8436;DHT22;4255;48.730;9.156;2022-11-15T12:44:12;17.10;99.90
8436;DHT22;4255;48.730;9.156;2022-11-15T12:59:49;16.50;99.90
8436;DHT22;4255;48.730;9.156;2022-11-15T13:02:33;16.30;99.90
8436;DHT22;4255;48.730;9.156;2022-11-15T13:17:51;16.10;99.90
8436;DHT22;4255;48.730;9.156;2022-11-15T13:20:23;15.90;99.90
8436;DHT22;4255;48.730;9.156;2022-11-15T13:23:13;15.90;99.90
8436;DHT22;4255;48.730;9.156;2022-11-15T13:33:50;16.00;99.90
8436;DHT22;4255;48.730;9.156;2022-11-15T13:36:19;16.00;99.90
8436;DHT22;4255;48.730;9.156;2022-11-15T13:38:58;15.80;99.90
8436;DHT22;4255;48.730;9.156;2022-11-15T13:41:30;15.80;99.90
8436;DHT22;4255;48.730;9.156;2022-11-15T13:43:58;15.80;99.90
8436;DHT22;4255;48.730;9.156;2022-11-15T13:46:26;15.80;99.90
8436;DHT22;4255;48.730;9.156;2022-11-15T13:49:04;15.80;99.90
8436;DHT22;4255;48.730;9.156;2022-11-15T13:54:24;15.70;99.90
8436;DHT22;4255;48.730;9.156;2022-11-15T13:56:54;15.50;99.90
8436;DHT22;4255;48.730;9.156;2022-11-15T14:01:50;15.50;99.90
8436;DHT22;4255;48.730;9.156;2022-11-15T14:04:20;15.40;99.90
8436;DHT22;4255;48.730;9.156;2022-11-15T14:06:50;15.40;99.90
8436;DHT22;4255;48.730;9.156;2022-11-15T14:09:36;15.30;99.90
8436;DHT22;4255;48.730;9.156;2022-11-15T14:14:47;14.60;99.90
8436;DHT22;4255;48.730;9.156;2022-11-15T14:17:40;14.50;99.90
8436;DHT22;4255;48.730;9.156;2022-11-15T14:23:04;14.70;99.90
8436;DHT22;4255;48.730;9.156;2022-11-15T14:25:34;14.70;99.90
8436;DHT22;4255;48.730;9.156;2022-11-15T14:30:47;14.60;99.90
8436;DHT22;4255;48.730;9.156;2022-11-15T14:33:34;14.40;99.90
8436;DHT22;4255;48.730;9.156;2022-11-15T14:36:12;14.40;99.90
8436;DHT22;4255;48.730;9.156;2022-11-15T14:38:38;14.20;99.90
8436;DHT22;4255;48.730;9.156;2022-11-15T14:41:04;14.20;99.90
8436;DHT22;4255;48.730;9.156;2022-11-15T14:43:31;14.10;99.90
8436;DHT22;4255;48.730;9.156;2022-11-15T14:45:57;14.00;99.90
8436;DHT22;4255;48.730;9.156;2022-11-15T14:48:22;13.90;99.90
8436;DHT22;4255;48.730;9.156;2022-11-15T14:50:48;14.00;99.90
8436;DHT22;4255;48.730;9.156;2022-11-15T14:53:15;14.10;99.90
8436;DHT22;4255;48.730;9.156;2022-11-15T14:55:41;14.10;99.90
8436;DHT22;4255;48.730;9.156;2022-11-15T14:58:08;14.20;99.90
8436;DHT22;4255;48.730;9.156;2022-11-15T15:00:35;14.20;99.90
8436;DHT22;4255;48.730;9.156;2022-11-15T15:03:02;14.20;99.90
8436;DHT22;4255;48.730;9.156;2022-11-15T15:05:33;14.40;99.90
8436;DHT22;4255;48.730;9.156;2022-11-15T15:07:59;14.30;99.90
8436;DHT22;4255;48.730;9.156;2022-11-15T15:10:29;14.40;99.90
8436;DHT22;4255;48.730;9.156;2022-11-15T15:12:56;14.30;99.90
8436;DHT22;4255;48.730;9.156;2022-11-15T15:15:32;14.30;99.90
8436;DHT22;4255;48.730;9.156;2022-11-15T15:17:58;14.40;99.90
8436;DHT22;4255;48.730;9.156;2022-11-15T15:20:24;14.20;99.90
8436;DHT22;4255;48.730;9.156;2022-11-15T15:22:49;14.00;99.90
8436;DHT22;4255;48.730;9.156;2022-11-15T15:25:23;13.80;99.90
8436;DHT22;4255;48.730;9.156;2022-11-15T15:27:49;13.70;99.90
8436;DHT22;4255;48.730;9.156;2022-11-15T15:30:15;13.60;99.90
8436;DHT22;4255;48.730;9.156;2022-11-15T15:32:41;13.60;99.90
8436;DHT22;4255;48.730;9.156;2022-11-15T15:35:07;13.50;99.90
8436;DHT22;4255;48.730;9.156;2022-11-15T15:37:36;13.50;99.90
8436;DHT22;4255;48.730;9.156;2022-11-15T15:40:01;13.60;99.90
8436;DHT22;4255;48.730;9.156;2022-11-15T15:42:27;13.60;99.90
8436;DHT22;4255;48.730;9.156;2022-11-15T15:44:52;13.60;99.90
8436;DHT22;4255;48.730;9.156;2022-11-15T15:47:23;13.70;99.90
8436;DHT22;4255;48.730;9.156;2022-11-15T15:49:50;13.80;99.90
8436;DHT22;4255;48.730;9.156;2022-11-15T15:52:16;13.70;99.90
8436;DHT22;4255;48.730;9.156;2022-11-15T15:54:42;13.70;99.90
8436;DHT22;4255;48.730;9.156;2022-11-15T15:57:08;13.70;99.90
8436;DHT22;4255;48.730;9.156;2022-11-15T15:59:36;13.70;99.90
8436;DHT22;4255;48.730;9.156;2022-11-15T16:02:02;13.80;99.90
8436;DHT22;4255;48.730;9.156;2022-11-15T16:04:28;13.70;99.90
8436;DHT22;4255;48.730;9.156;2022-11-15T16:06:59;13.70;99.90
8436;DHT22;4255;48.730;9.156;2022-11-15T16:09:24;13.70;99.90
8436;DHT22;4255;48.730;9.156;2022-11-15T16:12:09;13.60;99.90
8436;DHT22;4255;48.730;9.156;2022-11-15T16:14:35;13.50;99.90
8436;DHT22;4255;48.730;9.156;2022-11-15T16:17:01;13.60;99.90
8436;DHT22;4255;48.730;9.156;2022-11-15T16:19:27;13.50;99.90
8436;DHT22;4255;48.730;9.156;2022-11-15T16:21:52;13.50;99.90
8436;DHT22;4255;48.730;9.156;2022-11-15T16:24:19;13.40;99.90
8436;DHT22;4255;48.730;9.156;2022-11-15T16:26:45;13.30;99.90
8436;DHT22;4255;48.730;9.156;2022-11-15T16:29:12;13.40;99.90
8436;DHT22;4255;48.730;9.156;2022-11-15T16:31:38;13.50;99.90
8436;DHT22;4255;48.730;9.156;2022-11-15T16:34:03;13.50;99.90
8436;DHT22;4255;48.730;9.156;2022-11-15T16:36:30;13.40;99.90
8436;DHT22;4255;48.730;9.156;2022-11-15T16:38:58;13.30;99.90
8436;DHT22;4255;48.730;9.156;2022-11-15T16:41:24;13.20;99.90
8436;DHT22;4255;48.730;9.156;2022-11-15T16:43:50;13.00;99.90
8436;DHT22;4255;48.730;9.156;2022-11-15T16:46:21;12.90;99.90
8436;DHT22;4255;48.730;9.156;2022-11-15T16:48:48;12.90;99.90
8436;DHT22;4255;48.730;9.156;2022-11-15T16:51:14;12.80;99.90
8436;DHT22;4255;48.730;9.156;2022-11-15T16:53:40;13.00;99.90
8436;DHT22;4255;48.730;9.156;2022-11-15T16:56:28;12.80;99.90
8436;DHT22;4255;48.730;9.156;2022-11-15T16:58:54;13.00;99.90
8436;DHT22;4255;48.730;9.156;2022-11-15T17:01:24;13.10;99.90
8436;DHT22;4255;48.730;9.156;2022-11-15T17:03:50;13.20;99.90
8436;DHT22;4255;48.730;9.156;2022-11-15T17:06:16;13.30;99.90
8436;DHT22;4255;48.730;9.156;2022-11-15T17:08:43;13.20;99.90
8436;DHT22;4255;48.730;9.156;2022-11-15T17:11:10;13.30;99.90
8436;DHT22;4255;48.730;9.156;2022-11-15T17:13:38;13.30;99.90
8436;DHT22;4255;48.730;9.156;2022-11-15T17:16:09;13.20;99.90
8436;DHT22;4255;48.730;9.156;2022-11-15T17:18:36;13.20;99.90
8436;DHT22;4255;48.730;9.156;2022-11-15T17:21:14;13.20;99.90
8436;DHT22;4255;48.730;9.156;2022-11-15T17:23:40;13.20;99.90
8436;DHT22;4255;48.730;9.156;2022-11-15T17:26:06;13.10;99.90
8436;DHT22;4255;48.730;9.156;2022-11-15T17:28:32;13.20;99.90
8436;DHT22;4255;48.730;9.156;2022-11-15T17:30:58;13.30;99.90
8436;DHT22;4255;48.730;9.156;2022-11-15T17:33:23;13.30;99.90
8436;DHT22;4255;48.730;9.156;2022-11-15T17:36:00;13.30;99.90
8436;DHT22;4255;48.730;9.156;2022-11-15T17:38:27;13.30;99.90
8436;DHT22;4255;48.730;9.156;2022-11-15T17:41:04;13.30;99.90
8436;DHT22;4255;48.730;9.156;2022-11-15T17:43:31;13.30;99.90
8436;DHT22;4255;48.730;9.156;2022-11-15T17:45:58;13.30;99.90
8436;DHT22;4255;48.730;9.156;2022-11-15T17:48:23;13.40;99.90
8436;DHT22;4255;48.730;9.156;2022-11-15T17:51:10;13.40;99.90
8436;DHT22;4255;48.730;9.156;2022-11-15T17:53:41;13.40;99.90
8436;DHT22;4255;48.730;9.156;2022-11-15T17:56:08;13.30;99.90
8436;DHT22;4255;48.730;9.156;2022-11-15T17:58:34;13.30;99.90
8436;DHT22;4255;48.730;9.156;2022-11-15T18:01:07;13.30;99.90
8436;DHT22;4255;48.730;9.156;2022-11-15T18:03:37;13.20;99.90
8436;DHT22;4255;48.730;9.156;2022-11-15T18:06:04;13.20;99.90
8436;DHT22;4255;48.730;9.156;2022-11-15T18:08:31;13.10;99.90
8436;DHT22;4255;48.730;9.156;2022-11-15T18:11:20;13.30;99.90
8436;DHT22;4255;48.730;9.156;2022-11-15T18:13:51;13.40;99.90
8436;DHT22;4255;48.730;9.156;2022-11-15T18:16:19;13.30;99.90
8436;DHT22;4255;48.730;9.156;2022-11-15T18:18:45;13.30;99.90
8436;DHT22;4255;48.730;9.156;2022-11-15T18:21:16;13.30;99.90
8436;DHT22;4255;48.730;9.156;2022-11-15T18:23:43;13.40;99.90
8436;DHT22;4255;48.730;9.156;2022-11-15T18:26:11;13.30;99.90
8436;DHT22;4255;48.730;9.156;2022-11-15T18:28:42;13.40;99.90
8436;DHT22;4255;48.730;9.156;2022-11-15T18:33:44;13.70;99.90
8436;DHT22;4255;48.730;9.156;2022-11-15T18:36:16;13.80;99.90